Terminal Aerodrome Forecast
Issued by NWS

Home | Current Version | Previous Version | Text Only | Print | Product List | Glossary Off
Versions: 1 2 3 4 5 6 7 8 9 10 11 12 13 14 15 16 17 18 19 20 21 22 23 24 25 26 27 28 29 30 31 32 33 34 35 36 37 38 39 40 41 42 43 44 45 46 47 48 49 50

000
FTUS43 KLOT 261400 AAA
TAFGYY
TAF AMD
KGYY 261404Z 2614/2712 16005KT P6SM SCT020 SCT120 BKN250
     FM261700 17006KT P6SM OVC070
     FM261900 16008KT 4SM -SN BR SCT015 OVC025
      TEMPO 2622/2702 2SM -SN BR OVC015
     FM270200 14007KT P6SM -SN SCT010 OVC015
     FM270600 10005KT 5SM -SN BR OVC010
     FM271000 04005KT P6SM OVC010=

USA.gov is the U.S. government's official web portal to all federal, state and local government web resources and services.